Time;durP1;ratioP1;P1;durP2;ratioP2;P2;SDS_P1;SDS_P2;PMS_P1;PMS_P2;Temp;Humidity;BMP_temperature;BMP_pressure;BME280_temperature;BME280_humidity;BME280_pressure;Samples;Min_cycle;Max_cycle;Signal;HPM_P1;HPM_P2
2022/09/11 00:01:56;;;;;;;;;;;15.50;99.90;;;;;;5051492;28;20043;-77
2022/09/11 00:04:23;;;;;;;;;;;15.40;99.90;;;;;;5054689;28;19929;-77
2022/09/11 00:06:50;;;;;;;;;;;15.40;99.90;;;;;;5054346;28;19925;-77
2022/09/11 00:09:16;;;;;;;;;;;15.30;99.90;;;;;;5047573;28;19940;-77
2022/09/11 00:11:43;;;;;;;;;;;15.20;99.90;;;;;;5030607;28;20515;-77
2022/09/11 00:14:12;;;;;;;;;;;15.20;99.90;;;;;;5047490;28;19933;-77
2022/09/11 00:16:40;;;;;;;;;;;15.10;99.90;;;;;;5042195;28;19936;-76
2022/09/11 00:19:10;;;;;;;;;;;15.00;99.90;;;;;;5042845;28;20655;-76
2022/09/11 00:21:37;;;;;;;;;;;15.00;99.90;;;;;;5050226;28;19932;-76
2022/09/11 00:24:04;;;;;;;;;;;14.90;99.90;;;;;;5050935;28;19956;-77
2022/09/11 00:26:31;;;;;;;;;;;14.90;99.90;;;;;;5040594;28;19925;-76
2022/09/11 00:29:00;;;;;;;;;;;14.80;99.90;;;;;;5037013;28;19932;-80
2022/09/11 00:31:28;;;;;;;;;;;14.80;99.90;;;;;;5031811;28;20494;-80
2022/09/11 00:33:55;;;;;;;;;;;14.80;99.90;;;;;;5032067;28;19936;-76
2022/09/11 00:36:26;;;;;;;;;;;14.80;99.90;;;;;;5033269;28;19936;-76
2022/09/11 00:38:53;;;;;;;;;;;14.80;99.90;;;;;;5057313;28;20011;-76
2022/09/11 00:41:21;;;;;;;;;;;14.80;99.90;;;;;;5023722;28;19929;-76
2022/09/11 00:43:52;;;;;;;;;;;14.80;99.90;;;;;;5028411;28;20650;-77
2022/09/11 00:46:20;;;;;;;;;;;14.70;99.90;;;;;;5021465;28;19925;-77
2022/09/11 00:48:48;;;;;;;;;;;14.70;99.90;;;;;;5050064;28;20079;-77
2022/09/11 00:51:17;;;;;;;;;;;14.70;99.90;;;;;;5050631;28;19933;-76
2022/09/11 00:53:47;;;;;;;;;;;14.60;99.90;;;;;;5032161;28;20397;-76
2022/09/11 00:56:14;;;;;;;;;;;14.60;99.90;;;;;;5050544;28;20051;-75
2022/09/11 00:58:43;;;;;;;;;;;14.60;99.90;;;;;;5013023;28;19933;-77
2022/09/11 01:01:10;;;;;;;;;;;14.60;99.90;;;;;;5047026;28;19980;-76
2022/09/11 01:03:38;;;;;;;;;;;14.60;99.90;;;;;;5032344;28;20007;-76
2022/09/11 01:06:05;;;;;;;;;;;14.60;99.90;;;;;;5050060;28;20394;-76
2022/09/11 01:08:32;;;;;;;;;;;14.60;99.90;;;;;;5049695;28;19964;-76
2022/09/11 01:11:05;;;;;;;;;;;14.60;99.90;;;;;;5031600;28;19928;-77
2022/09/11 01:13:34;;;;;;;;;;;14.60;99.90;;;;;;5049797;28;19932;-77
2022/09/11 01:16:05;;;;;;;;;;;14.60;99.90;;;;;;5031689;28;19929;-77
2022/09/11 01:18:34;;;;;;;;;;;14.50;99.90;;;;;;5021811;28;19940;-77
2022/09/11 01:21:17;;;;;;;;;;;14.50;99.90;;;;;;5014042;28;20345;-77
2022/09/11 01:23:59;;;;;;;;;;;14.50;99.90;;;;;;5030058;28;19929;-77
2022/09/11 01:26:47;;;;;;;;;;;14.40;99.90;;;;;;5036970;28;20272;-76
2022/09/11 01:29:17;;;;;;;;;;;14.40;99.90;;;;;;5019827;28;19951;-76
2022/09/11 01:31:48;;;;;;;;;;;14.40;99.90;;;;;;5049074;28;20397;-77
2022/09/11 01:34:19;;;;;;;;;;;14.40;99.90;;;;;;5049025;28;20405;-77
2022/09/11 01:36:52;;;;;;;;;;;14.40;99.90;;;;;;5019959;28;19983;-77
2022/09/11 01:39:20;;;;;;;;;;;14.40;99.90;;;;;;5042710;28;20030;-76
2022/09/11 01:41:51;;;;;;;;;;;14.50;99.90;;;;;;5046224;28;19985;-76
2022/09/11 01:44:21;;;;;;;;;;;14.50;99.90;;;;;;5031273;28;19964;-76
2022/09/11 01:46:50;;;;;;;;;;;14.50;99.90;;;;;;5029916;28;19924;-76
2022/09/11 01:49:18;;;;;;;;;;;14.50;99.90;;;;;;5023752;28;20008;-76
2022/09/11 01:51:47;;;;;;;;;;;14.60;99.90;;;;;;5044810;28;20312;-76
2022/09/11 01:54:16;;;;;;;;;;;14.60;99.90;;;;;;5044200;28;19982;-76
2022/09/11 01:56:46;;;;;;;;;;;14.70;99.90;;;;;;5015952;28;19929;-77
2022/09/11 01:59:16;;;;;;;;;;;14.80;99.90;;;;;;5031022;28;19932;-77
2022/09/11 02:01:48;;;;;;;;;;;14.80;99.90;;;;;;5039153;28;19929;-77
2022/09/11 02:04:17;;;;;;;;;;;14.90;99.90;;;;;;5045946;28;19929;-76
2022/09/11 02:06:48;;;;;;;;;;;15.00;99.90;;;;;;5030198;28;19978;-77
2022/09/11 02:09:17;;;;;;;;;;;15.00;99.90;;;;;;5030797;28;20741;-76
2022/09/11 02:11:45;;;;;;;;;;;15.00;99.90;;;;;;5030966;28;19925;-76
2022/09/11 02:14:15;;;;;;;;;;;15.00;99.90;;;;;;5030444;28;19951;-76
2022/09/11 02:16:46;;;;;;;;;;;15.00;99.90;;;;;;5030474;28;19929;-77
2022/09/11 02:19:15;;;;;;;;;;;15.10;99.90;;;;;;5022123;28;19928;-77
2022/09/11 02:21:43;;;;;;;;;;;15.00;99.90;;;;;;5030586;28;19958;-77
2022/09/11 02:24:10;;;;;;;;;;;15.00;99.90;;;;;;5048432;28;20533;-77
2022/09/11 02:26:39;;;;;;;;;;;15.00;99.90;;;;;;5019335;28;19975;-77
2022/09/11 02:29:06;;;;;;;;;;;14.90;99.90;;;;;;5018729;28;20047;-77
2022/09/11 02:31:35;;;;;;;;;;;14.90;99.90;;;;;;5028467;28;19935;-77
2022/09/11 02:34:02;;;;;;;;;;;14.90;99.90;;;;;;5024062;28;19968;-76
2022/09/11 02:36:41;;;;;;;;;;;14.80;99.90;;;;;;5022336;28;20032;-77
2022/09/11 02:39:15;;;;;;;;;;;14.80;99.90;;;;;;5030344;28;19983;-76
2022/09/11 02:41:46;;;;;;;;;;;14.80;99.90;;;;;;5028147;28;19929;-76
2022/09/11 02:44:15;;;;;;;;;;;14.70;99.90;;;;;;5028361;28;20338;-75
2022/09/11 02:46:50;;;;;;;;;;;14.70;99.90;;;;;;5054566;28;19992;-77
2022/09/11 02:49:20;;;;;;;;;;;14.70;99.90;;;;;;5041466;28;19947;-76
2022/09/11 02:51:54;;;;;;;;;;;14.60;99.90;;;;;;5029646;28;20562;-77
2022/09/11 02:54:29;;;;;;;;;;;13.30;99.90;;;;;;5027323;28;19932;-76
2022/09/11 02:59:39;;;;;;;;;;;14.60;99.90;;;;;;5077306;22;19924;-77
2022/09/11 03:02:09;;;;;;;;;;;14.60;99.90;;;;;;5080280;28;19940;-77
2022/09/11 03:04:37;;;;;;;;;;;14.60;99.90;;;;;;5051610;28;19936;-78
2022/09/11 03:07:05;;;;;;;;;;;14.70;99.90;;;;;;5049191;28;19925;-77
2022/09/11 03:09:33;;;;;;;;;;;14.70;99.90;;;;;;5068313;28;19990;-77
2022/09/11 03:12:05;;;;;;;;;;;14.60;99.90;;;;;;5050094;28;19935;-76
2022/09/11 03:14:37;;;;;;;;;;;14.70;99.90;;;;;;5048636;28;19978;-75
2022/09/11 03:17:04;;;;;;;;;;;14.80;99.90;;;;;;5067957;28;19959;-76
2022/09/11 03:19:31;;;;;;;;;;;14.90;99.90;;;;;;5049468;28;19932;-77
2022/09/11 03:21:57;;;;;;;;;;;14.90;99.90;;;;;;5049891;28;19931;-76
2022/09/11 03:24:26;;;;;;;;;;;15.00;99.90;;;;;;5068052;28;20341;-77
2022/09/11 03:26:53;;;;;;;;;;;15.00;99.90;;;;;;5066886;28;20046;-75
2022/09/11 03:29:19;;;;;;;;;;;15.10;99.90;;;;;;5068087;28;19931;-77
2022/09/11 03:31:46;;;;;;;;;;;15.20;99.90;;;;;;5067732;28;19978;-77
2022/09/11 03:34:13;;;;;;;;;;;15.30;99.90;;;;;;5058605;28;19929;-76
2022/09/11 03:36:40;;;;;;;;;;;15.30;99.90;;;;;;5068988;28;20038;-77
2022/09/11 03:39:07;;;;;;;;;;;15.40;99.90;;;;;;5056948;28;20019;-76
2022/09/11 03:41:35;;;;;;;;;;;15.40;99.90;;;;;;5067842;28;19924;-76
2022/09/11 03:44:02;;;;;;;;;;;15.40;99.90;;;;;;5054390;28;20471;-76
2022/09/11 03:46:30;;;;;;;;;;;15.50;99.90;;;;;;5065861;28;19931;-77
2022/09/11 03:48:58;;;;;;;;;;;15.50;99.90;;;;;;5066206;28;19989;-76
2022/09/11 03:51:25;;;;;;;;;;;15.50;99.90;;;;;;5066065;28;20022;-76
2022/09/11 03:53:52;;;;;;;;;;;15.60;99.90;;;;;;5072722;28;19979;-84
2022/09/11 03:56:20;;;;;;;;;;;15.70;99.90;;;;;;5041360;28;20301;-75
2022/09/11 03:58:49;;;;;;;;;;;15.70;99.90;;;;;;5057827;28;19928;-76
2022/09/11 04:01:17;;;;;;;;;;;15.70;99.90;;;;;;5049358;28;19971;-75
2022/09/11 04:03:45;;;;;;;;;;;15.80;99.90;;;;;;5060611;28;20023;-75
2022/09/11 04:06:19;;;;;;;;;;;15.80;99.90;;;;;;5069511;28;19939;-76
2022/09/11 04:08:46;;;;;;;;;;;15.80;99.90;;;;;;5070899;28;19928;-75
2022/09/11 04:11:14;;;;;;;;;;;15.80;99.90;;;;;;5069628;28;19932;-76
2022/09/11 04:13:42;;;;;;;;;;;15.90;99.90;;;;;;5053055;28;20334;-76
2022/09/11 04:16:14;;;;;;;;;;;15.90;99.90;;;;;;5061402;28;20000;-76
2022/09/11 04:18:44;;;;;;;;;;;16.90;99.90;;;;;;5052521;28;19981;-76
2022/09/11 04:21:12;;;;;;;;;;;15.90;99.90;;;;;;5052936;28;19928;-75
2022/09/11 04:23:40;;;;;;;;;;;15.90;99.90;;;;;;5052873;28;20381;-76
2022/09/11 04:26:13;;;;;;;;;;;16.00;99.90;;;;;;5052164;28;20012;-76
2022/09/11 04:28:40;;;;;;;;;;;16.00;99.90;;;;;;5052561;28;19929;-76
2022/09/11 04:31:06;;;;;;;;;;;16.00;99.90;;;;;;5063907;28;19943;-76
2022/09/11 04:33:35;;;;;;;;;;;16.00;99.90;;;;;;5053033;28;19928;-76
2022/09/11 04:36:06;;;;;;;;;;;16.00;99.90;;;;;;5052671;28;20297;-76
2022/09/11 04:38:33;;;;;;;;;;;16.00;99.90;;;;;;5052005;28;19932;-76
2022/09/11 04:41:01;;;;;;;;;;;16.00;99.90;;;;;;5070670;28;20023;-79
2022/09/11 04:43:28;;;;;;;;;;;16.00;99.90;;;;;;5052722;28;20015;-77
2022/09/11 04:46:01;;;;;;;;;;;16.00;99.90;;;;;;5061864;28;19925;-76
2022/09/11 04:48:28;;;;;;;;;;;16.10;99.90;;;;;;5052322;28;20453;-78
2022/09/11 04:51:00;;;;;;;;;;;16.10;99.90;;;;;;5071621;28;19952;-75
2022/09/11 04:53:27;;;;;;;;;;;16.10;99.90;;;;;;5054812;28;20340;-76
2022/09/11 04:56:02;;;;;;;;;;;16.10;99.90;;;;;;5053901;28;19940;-76
2022/09/11 04:58:35;;;;;;;;;;;16.10;99.90;;;;;;5059143;28;19929;-76
2022/09/11 05:01:05;;;;;;;;;;;16.00;99.90;;;;;;5056810;28;19944;-76
2022/09/11 05:03:32;;;;;;;;;;;16.00;99.90;;;;;;5051999;28;20007;-77
2022/09/11 05:06:03;;;;;;;;;;;16.00;99.90;;;;;;5072861;28;20413;-77
2022/09/11 05:08:31;;;;;;;;;;;16.00;99.90;;;;;;5051778;28;19974;-75
2022/09/11 05:10:59;;;;;;;;;;;16.10;99.90;;;;;;5051926;28;19929;-76
2022/09/11 05:13:26;;;;;;;;;;;16.10;99.90;;;;;;5052411;28;19928;-76
2022/09/11 05:15:59;;;;;;;;;;;16.10;99.90;;;;;;5051656;28;19936;-76
2022/09/11 05:18:28;;;;;;;;;;;16.10;99.90;;;;;;5051577;28;20000;-77
2022/09/11 05:21:00;;;;;;;;;;;16.20;99.90;;;;;;5053334;28;19948;-76
2022/09/11 05:23:27;;;;;;;;;;;16.20;99.90;;;;;;5053060;28;20016;-77
2022/09/11 05:25:56;;;;;;;;;;;16.20;99.90;;;;;;5052704;28;20400;-76
2022/09/11 05:28:25;;;;;;;;;;;16.20;99.90;;;;;;5074178;28;19987;-76
2022/09/11 05:30:54;;;;;;;;;;;16.20;99.90;;;;;;5063570;28;20130;-76
2022/09/11 05:33:22;;;;;;;;;;;16.30;99.90;;;;;;5052539;28;19932;-76
2022/09/11 05:35:49;;;;;;;;;;;16.20;99.90;;;;;;5052080;28;19928;-76
2022/09/11 05:38:18;;;;;;;;;;;16.20;99.90;;;;;;5047978;28;19931;-76
2022/09/11 05:40:45;;;;;;;;;;;16.20;99.90;;;;;;5070297;28;19924;-76
2022/09/11 05:43:13;;;;;;;;;;;16.30;99.90;;;;;;5068865;28;20065;-76
2022/09/11 05:45:41;;;;;;;;;;;16.20;99.90;;;;;;5051539;28;20488;-76
2022/09/11 05:48:08;;;;;;;;;;;16.20;99.90;;;;;;5069875;28;20487;-76
2022/09/11 05:50:37;;;;;;;;;;;16.20;99.90;;;;;;5052151;28;19934;-76
2022/09/11 05:53:05;;;;;;;;;;;16.20;99.90;;;;;;5051394;28;20043;-76
2022/09/11 05:55:34;;;;;;;;;;;16.30;99.90;;;;;;5055851;28;19973;-77
2022/09/11 05:58:01;;;;;;;;;;;16.30;99.90;;;;;;5068801;28;19935;-76
2022/09/11 06:00:29;;;;;;;;;;;16.30;99.90;;;;;;5051473;28;20389;-76
2022/09/11 06:02:57;;;;;;;;;;;16.30;99.90;;;;;;5051295;28;19929;-77
2022/09/11 06:05:27;;;;;;;;;;;16.30;99.90;;;;;;5050780;28;19938;-76
2022/09/11 06:07:57;;;;;;;;;;;16.30;99.90;;;;;;5052316;28;20031;-76
2022/09/11 06:10:23;;;;;;;;;;;16.30;99.90;;;;;;5051387;28;19928;-76
2022/09/11 06:12:51;;;;;;;;;;;16.30;99.90;;;;;;5067950;28;20294;-76
2022/09/11 06:15:18;;;;;;;;;;;15.20;99.90;;;;;;5056644;28;19924;-76
2022/09/11 06:17:45;;;;;;;;;;;16.40;99.90;;;;;;5063655;28;20281;-77
2022/09/11 06:20:12;;;;;;;;;;;16.40;99.90;;;;;;5048378;28;19928;-76
2022/09/11 06:22:40;;;;;;;;;;;16.40;99.90;;;;;;5047926;28;20309;-78
2022/09/11 06:25:09;;;;;;;;;;;16.40;99.90;;;;;;5044277;28;20569;-76
2022/09/11 06:27:36;;;;;;;;;;;16.50;99.90;;;;;;5163875;22;19967;-82
2022/09/11 06:30:06;;;;;;;;;;;16.50;99.90;;;;;;5067161;28;19928;-82
2022/09/11 06:32:36;;;;;;;;;;;16.70;99.90;;;;;;5081998;28;20003;-82
2022/09/11 06:35:04;;;;;;;;;;;16.70;99.90;;;;;;5078111;28;19975;-81
2022/09/11 06:37:32;;;;;;;;;;;16.80;99.90;;;;;;5084615;28;19924;-80
2022/09/11 06:39:59;;;;;;;;;;;16.80;99.90;;;;;;5053654;28;19920;-81
2022/09/11 06:42:28;;;;;;;;;;;16.90;99.90;;;;;;5065302;28;20045;-83
2022/09/11 06:44:57;;;;;;;;;;;17.00;99.90;;;;;;5054652;28;19924;-82
2022/09/11 06:47:26;;;;;;;;;;;17.00;99.90;;;;;;5044164;28;19929;-82
2022/09/11 06:49:53;;;;;;;;;;;17.10;99.90;;;;;;5051037;28;19947;-81
2022/09/11 06:52:20;;;;;;;;;;;17.10;99.90;;;;;;5079233;28;19940;-83
2022/09/11 06:54:59;;;;;;;;;;;17.20;99.90;;;;;;5054629;28;19928;-85
2022/09/11 06:57:25;;;;;;;;;;;17.30;99.90;;;;;;5056311;28;20393;-84
2022/09/11 06:59:52;;;;;;;;;;;17.30;99.90;;;;;;5064739;28;20019;-84
2022/09/11 07:02:20;;;;;;;;;;;17.30;99.90;;;;;;5064040;28;20580;-85
2022/09/11 07:04:48;;;;;;;;;;;17.50;99.90;;;;;;5074174;28;19935;-85
2022/09/11 07:07:16;;;;;;;;;;;17.50;99.90;;;;;;5073995;28;19935;-84
2022/09/11 07:09:43;;;;;;;;;;;17.60;99.90;;;;;;5055383;28;19971;-84
2022/09/11 07:12:11;;;;;;;;;;;17.70;99.90;;;;;;5056572;28;19924;-83
2022/09/11 07:14:40;;;;;;;;;;;17.70;99.90;;;;;;5059321;28;19986;-83
2022/09/11 07:17:13;;;;;;;;;;;17.70;99.90;;;;;;5090383;28;19928;-72
2022/09/11 07:19:42;;;;;;;;;;;17.70;99.90;;;;;;5073279;28;19972;-72
2022/09/11 07:22:13;;;;;;;;;;;17.70;99.90;;;;;;5065633;28;19950;-72
2022/09/11 07:24:40;;;;;;;;;;;17.70;99.90;;;;;;5048520;28;20769;-72
2022/09/11 07:27:07;;;;;;;;;;;17.80;99.90;;;;;;5074993;28;19954;-71
2022/09/11 07:29:35;;;;;;;;;;;17.80;99.90;;;;;;5081623;28;19966;-73
2022/09/11 07:32:02;;;;;;;;;;;17.80;99.90;;;;;;5066140;28;20015;-71
2022/09/11 07:34:29;;;;;;;;;;;17.90;99.90;;;;;;5067476;28;19937;-71
2022/09/11 07:36:58;;;;;;;;;;;17.80;99.90;;;;;;5069011;28;20438;-71
2022/09/11 07:39:28;;;;;;;;;;;17.80;99.90;;;;;;5070103;28;20030;-71
2022/09/11 07:42:06;;;;;;;;;;;17.80;99.90;;;;;;5048912;28;19929;-73
2022/09/11 07:44:33;;;;;;;;;;;17.80;99.90;;;;;;5075559;28;20281;-71
2022/09/11 07:47:00;;;;;;;;;;;17.80;99.90;;;;;;5063305;28;20312;-71
2022/09/11 07:49:27;;;;;;;;;;;17.90;99.90;;;;;;5064663;28;19928;-71
2022/09/11 07:51:55;;;;;;;;;;;17.90;99.90;;;;;;5052509;28;20596;-71
2022/09/11 07:54:34;;;;;;;;;;;17.90;99.90;;;;;;5552344;23;20312;-71
2022/09/11 07:57:01;;;;;;;;;;;17.90;99.90;;;;;;5056960;28;20448;-71
2022/09/11 07:59:28;;;;;;;;;;;17.90;99.90;;;;;;5064255;28;19925;-71
2022/09/11 08:01:56;;;;;;;;;;;19.10;99.90;;;;;;5063967;28;20044;-71
2022/09/11 08:04:24;;;;;;;;;;;19.20;99.90;;;;;;5069002;28;19928;-71
2022/09/11 08:06:51;;;;;;;;;;;18.10;99.90;;;;;;5067250;28;19939;-71
2022/09/11 08:09:26;;;;;;;;;;;19.30;99.90;;;;;;5052559;28;19933;-71
2022/09/11 08:11:57;;;;;;;;;;;18.20;99.90;;;;;;5045114;28;19932;-71
2022/09/11 08:14:25;;;;;;;;;;;18.10;99.90;;;;;;5051245;28;20429;-71
2022/09/11 08:16:53;;;;;;;;;;;18.30;99.90;;;;;;5050980;28;19928;-71
2022/09/11 08:19:21;;;;;;;;;;;18.00;99.90;;;;;;5049135;28;19932;-72
2022/09/11 08:21:52;;;;;;;;;;;19.30;99.90;;;;;;5050896;28;19948;-71
2022/09/11 08:24:20;;;;;;;;;;;17.90;99.90;;;;;;5050815;28;19928;-71
2022/09/11 08:26:49;;;;;;;;;;;17.80;99.90;;;;;;5051362;28;19928;-71
2022/09/11 08:29:19;;;;;;;;;;;17.90;99.90;;;;;;5052633;28;20531;-71
2022/09/11 08:31:47;;;;;;;;;;;18.00;99.90;;;;;;5065002;28;19970;-71
2022/09/11 08:34:16;;;;;;;;;;;18.20;99.90;;;;;;5063016;28;19928;-72
2022/09/11 08:36:43;;;;;;;;;;;18.40;99.90;;;;;;5073147;28;19928;-71
2022/09/11 08:39:11;;;;;;;;;;;18.60;99.90;;;;;;5061074;28;19925;-71
2022/09/11 08:41:47;;;;;;;;;;;18.80;99.90;;;;;;5050259;28;19928;-71
2022/09/11 08:44:16;;;;;;;;;;;19.10;99.90;;;;;;5054793;28;20682;-71
2022/09/11 08:46:47;;;;;;;;;;;19.30;99.90;;;;;;5062341;28;19968;-71
2022/09/11 08:49:18;;;;;;;;;;;19.50;99.90;;;;;;5053878;28;19929;-71
2022/09/11 08:51:46;;;;;;;;;;;19.70;99.90;;;;;;5055901;28;20034;-71
2022/09/11 08:54:20;;;;;;;;;;;19.90;99.90;;;;;;5056755;28;19940;-72
2022/09/11 08:56:48;;;;;;;;;;;19.90;99.90;;;;;;5045119;28;19971;-71
2022/09/11 08:59:19;;;;;;;;;;;20.10;99.90;;;;;;5051627;28;19925;-71
2022/09/11 09:01:52;;;;;;;;;;;20.10;99.90;;;;;;5056862;28;19924;-71
2022/09/11 09:04:30;;;;;;;;;;;20.20;99.90;;;;;;5553048;23;19928;-71
2022/09/11 09:07:01;;;;;;;;;;;20.20;99.90;;;;;;5056950;28;20135;-71
2022/09/11 09:09:31;;;;;;;;;;;20.30;99.90;;;;;;5064078;28;20068;-72
2022/09/11 09:12:03;;;;;;;;;;;20.40;99.90;;;;;;5063851;28;20023;-72
2022/09/11 09:14:54;;;;;;;;;;;20.30;99.90;;;;;;5056052;28;19932;-72
2022/09/11 09:17:25;;;;;;;;;;;20.40;99.90;;;;;;5016156;28;20007;-75
2022/09/11 09:20:01;;;;;;;;;;;20.50;99.90;;;;;;5041301;28;19931;-75
2022/09/11 09:22:35;;;;;;;;;;;20.80;99.90;;;;;;5061884;28;19932;-75
2022/09/11 09:25:05;;;;;;;;;;;21.00;99.90;;;;;;5067939;28;19968;-77
2022/09/11 09:27:35;;;;;;;;;;;20.90;99.90;;;;;;5063783;28;19925;-76
2022/09/11 09:30:05;;;;;;;;;;;20.90;99.90;;;;;;5045088;28;19935;-75
2022/09/11 09:32:37;;;;;;;;;;;21.00;99.90;;;;;;5067207;28;20305;-77
2022/09/11 09:35:10;;;;;;;;;;;21.00;99.90;;;;;;5066935;28;20019;-81
2022/09/11 09:37:38;;;;;;;;;;;21.10;99.90;;;;;;5046924;28;20016;-73
2022/09/11 09:40:09;;;;;;;;;;;21.30;99.90;;;;;;5071390;28;20015;-79
2022/09/11 09:42:46;;;;;;;;;;;21.20;99.90;;;;;;5072163;28;20384;-77
2022/09/11 09:45:31;;;;;;;;;;;21.30;99.90;;;;;;5063467;28;19932;-77
2022/09/11 09:48:00;;;;;;;;;;;21.20;99.90;;;;;;5035729;28;19933;-76
2022/09/11 09:50:29;;;;;;;;;;;21.10;99.90;;;;;;5079347;28;19935;-76
2022/09/11 09:52:59;;;;;;;;;;;21.10;99.90;;;;;;5043379;28;19951;-78
2022/09/11 09:55:26;;;;;;;;;;;21.10;99.90;;;;;;5067039;28;19974;-78
2022/09/11 09:57:53;;;;;;;;;;;21.20;99.90;;;;;;5076383;28;19966;-77
2022/09/11 10:00:20;;;;;;;;;;;21.30;99.90;;;;;;5060373;28;19975;-77
2022/09/11 10:02:52;;;;;;;;;;;21.80;99.90;;;;;;5054831;28;19925;-76
2022/09/11 10:05:25;;;;;;;;;;;21.80;99.90;;;;;;5054739;28;20033;-77
2022/09/11 10:07:53;;;;;;;;;;;21.80;99.90;;;;;;5068156;28;20016;-81
2022/09/11 10:10:25;;;;;;;;;;;21.70;99.90;;;;;;5062469;28;19939;-76
2022/09/11 10:12:52;;;;;;;;;;;21.80;99.90;;;;;;5072726;28;19960;-77
2022/09/11 10:15:21;;;;;;;;;;;21.60;99.90;;;;;;5046815;28;19925;-76
2022/09/11 10:17:48;;;;;;;;;;;21.70;99.90;;;;;;5052606;28;19953;-73
2022/09/11 10:20:22;;;;;;;;;;;21.90;99.90;;;;;;5064572;28;19963;-78
2022/09/11 10:22:50;;;;;;;;;;;22.10;99.90;;;;;;5067758;28;19932;-78
2022/09/11 10:25:18;;;;;;;;;;;22.30;99.90;;;;;;5064652;28;19929;-76
2022/09/11 10:27:56;;;;;;;;;;;22.40;99.90;;;;;;5059194;28;19963;-75
2022/09/11 10:30:30;;;;;;;;;;;22.60;99.90;;;;;;5061328;28;19975;-76
2022/09/11 10:32:58;;;;;;;;;;;23.00;99.90;;;;;;5039757;28;19928;-77
2022/09/11 10:35:26;;;;;;;;;;;23.00;99.90;;;;;;5059382;28;19967;-79
2022/09/11 10:38:16;;;;;;;;;;;23.20;99.90;;;;;;5067132;28;20444;-76
2022/09/11 10:40:53;;;;;;;;;;;23.30;99.90;;;;;;5056052;28;20377;-75
2022/09/11 10:43:24;;;;;;;;;;;23.50;99.90;;;;;;5054063;28;20430;-75
2022/09/11 10:46:04;;;;;;;;;;;23.80;99.90;;;;;;5065174;28;19925;-75
2022/09/11 10:48:31;;;;;;;;;;;24.20;99.90;;;;;;5060522;28;19925;-76
2022/09/11 10:51:06;;;;;;;;;;;24.60;99.90;;;;;;5060318;28;19975;-76
2022/09/11 10:53:36;;;;;;;;;;;25.00;99.90;;;;;;5060513;28;19932;-76
2022/09/11 10:56:04;;;;;;;;;;;25.20;99.90;;;;;;5054509;28;19931;-77
2022/09/11 10:58:33;;;;;;;;;;;25.50;99.90;;;;;;5060797;28;19924;-76
2022/09/11 11:01:00;;;;;;;;;;;25.50;99.90;;;;;;5063415;28;19947;-75
2022/09/11 11:03:28;;;;;;;;;;;25.70;99.90;;;;;;5057969;28;19928;-76
2022/09/11 11:06:02;;;;;;;;;;;25.90;99.90;;;;;;5059981;28;19936;-76
2022/09/11 11:08:49;;;;;;;;;;;26.20;99.90;;;;;;5057934;28;19970;-75
2022/09/11 11:11:28;;;;;;;;;;;26.30;99.90;;;;;;5058039;28;19929;-74
2022/09/11 11:14:06;;;;;;;;;;;26.30;99.90;;;;;;5056015;28;20641;-75
2022/09/11 11:16:38;;;;;;;;;;;26.30;99.90;;;;;;5055859;28;19939;-74
2022/09/11 11:19:17;;;;;;;;;;;26.40;99.90;;;;;;5058911;28;19933;-74
2022/09/11 11:21:52;;;;;;;;;;;26.50;99.90;;;;;;5057638;28;19925;-74
2022/09/11 11:24:26;;;;;;;;;;;26.50;99.90;;;;;;5058769;28;20394;-75
2022/09/11 11:27:00;;;;;;;;;;;26.40;99.90;;;;;;5067377;28;19936;-75
2022/09/11 11:29:45;;;;;;;;;;;26.20;99.90;;;;;;5066621;28;20459;-75
2022/09/11 11:32:29;;;;;;;;;;;25.80;99.90;;;;;;5066690;28;20042;-74
2022/09/11 11:35:11;;;;;;;;;;;26.00;99.90;;;;;;5058811;28;20363;-74
2022/09/11 11:37:40;;;;;;;;;;;26.10;99.90;;;;;;5067215;28;20072;-75
2022/09/11 11:40:12;;;;;;;;;;;26.20;99.90;;;;;;5050046;28;20669;-75
2022/09/11 11:42:42;;;;;;;;;;;26.30;99.90;;;;;;5051124;28;20354;-75
2022/09/11 11:45:16;;;;;;;;;;;26.30;99.90;;;;;;5067072;28;19929;-75
2022/09/11 11:47:44;;;;;;;;;;;26.20;99.90;;;;;;5058885;28;20290;-75
2022/09/11 11:50:13;;;;;;;;;;;26.10;99.90;;;;;;5066783;28;19959;-75
2022/09/11 11:52:45;;;;;;;;;;;26.00;99.90;;;;;;5062015;28;20599;-75
2022/09/11 11:55:16;;;;;;;;;;;26.00;99.90;;;;;;5069395;28;19928;-75
2022/09/11 11:57:46;;;;;;;;;;;25.90;99.90;;;;;;5070418;28;19934;-74
2022/09/11 12:00:14;;;;;;;;;;;25.70;99.90;;;;;;5065339;28;20332;-75
2022/09/11 12:02:44;;;;;;;;;;;25.40;99.90;;;;;;5052968;28;19974;-75
2022/09/11 12:05:13;;;;;;;;;;;25.40;99.90;;;;;;5064386;28;19925;-75
2022/09/11 12:07:40;;;;;;;;;;;25.40;99.90;;;;;;5048737;28;20026;-75
2022/09/11 12:10:08;;;;;;;;;;;25.30;99.90;;;;;;5042697;28;20011;-75
2022/09/11 12:15:19;;;;;;;;;;;24.70;99.90;;;;;;5438152;22;19927;-75
2022/09/11 12:17:48;;;;;;;;;;;24.50;99.90;;;;;;5109580;28;19927;-75
2022/09/11 12:20:28;;;;;;;;;;;24.30;99.90;;;;;;5083514;28;20318;-75
2022/09/11 12:22:55;;;;;;;;;;;24.10;99.90;;;;;;5102692;28;19931;-75
2022/09/11 12:25:55;;;;;;;;;;;24.10;99.90;;;;;;5082816;28;20277;-75
2022/09/11 12:28:23;;;;;;;;;;;24.10;99.90;;;;;;4987861;28;20028;-75
2022/09/11 12:31:03;;;;;;;;;;;24.20;99.90;;;;;;4982190;28;20065;-74
2022/09/11 12:33:49;;;;;;;;;;;24.30;99.90;;;;;;5048063;28;20027;-74
2022/09/11 12:36:17;;;;;;;;;;;24.20;99.90;;;;;;5077819;28;19929;-74
2022/09/11 12:38:46;;;;;;;;;;;24.00;99.90;;;;;;5075120;28;19928;-74
2022/09/11 12:41:13;;;;;;;;;;;24.00;99.90;;;;;;5071114;28;19928;-74
2022/09/11 12:43:47;;;;;;;;;;;24.20;99.90;;;;;;5082590;28;19928;-74
2022/09/11 12:46:29;;;;;;;;;;;24.50;99.90;;;;;;5072113;28;19947;-74
2022/09/11 12:48:58;;;;;;;;;;;24.90;99.90;;;;;;5066633;28;20049;-74
2022/09/11 12:51:25;;;;;;;;;;;25.50;99.90;;;;;;5068991;28;19928;-74
2022/09/11 12:53:54;;;;;;;;;;;26.00;99.90;;;;;;5069282;28;19928;-74
2022/09/11 12:56:22;;;;;;;;;;;26.40;99.90;;;;;;5073202;28;20001;-73
2022/09/11 12:58:52;;;;;;;;;;;26.60;99.90;;;;;;5054881;28;19928;-73
2022/09/11 13:01:21;;;;;;;;;;;26.80;99.90;;;;;;5079466;28;19929;-74
2022/09/11 13:03:50;;;;;;;;;;;26.90;99.90;;;;;;5097515;28;20314;-74
2022/09/11 13:06:18;;;;;;;;;;;27.10;99.90;;;;;;5093460;28;19928;-74
2022/09/11 13:08:47;;;;;;;;;;;27.40;99.90;;;;;;5068568;28;19944;-74
2022/09/11 13:11:34;;;;;;;;;;;27.60;99.90;;;;;;5082663;28;20006;-74
2022/09/11 13:14:00;;;;;;;;;;;27.60;99.90;;;;;;5067735;28;19929;-74
2022/09/11 13:16:29;;;;;;;;;;;27.60;99.90;;;;;;5097689;28;20419;-74
2022/09/11 13:18:58;;;;;;;;;;;27.60;99.90;;;;;;5100396;28;19965;-75
2022/09/11 13:21:26;;;;;;;;;;;27.70;99.90;;;;;;5098069;28;19939;-75
2022/09/11 13:23:53;;;;;;;;;;;27.80;99.90;;;;;;5079115;28;19932;-75
2022/09/11 13:26:23;;;;;;;;;;;28.10;99.90;;;;;;5092306;28;19989;-75
2022/09/11 13:28:51;;;;;;;;;;;27.90;99.90;;;;;;5069416;28;19938;-75
2022/09/11 13:31:20;;;;;;;;;;;28.00;99.90;;;;;;5091605;28;19974;-75
2022/09/11 13:33:48;;;;;;;;;;;27.80;99.90;;;;;;5088786;28;20257;-75
2022/09/11 13:36:15;;;;;;;;;;;27.70;99.90;;;;;;5063547;28;19982;-75
2022/09/11 13:38:44;;;;;;;;;;;27.60;99.90;;;;;;5081096;28;19923;-75
2022/09/11 13:41:14;;;;;;;;;;;27.70;99.90;;;;;;5075966;28;20635;-75
2022/09/11 13:43:43;;;;;;;;;;;27.80;99.90;;;;;;5080764;28;19928;-75
2022/09/11 13:46:10;;;;;;;;;;;27.80;99.90;;;;;;5068730;28;19928;-75
2022/09/11 13:48:37;;;;;;;;;;;27.70;99.90;;;;;;5078571;28;19928;-75
2022/09/11 13:51:05;;;;;;;;;;;27.60;99.90;;;;;;5058521;28;19928;-74
2022/09/11 13:53:33;;;;;;;;;;;27.50;99.90;;;;;;5078739;28;20520;-75
2022/09/11 13:56:02;;;;;;;;;;;27.50;99.90;;;;;;5080139;28;19928;-74
2022/09/11 13:58:34;;;;;;;;;;;27.60;99.90;;;;;;5074159;28;19993;-74
2022/09/11 14:01:10;;;;;;;;;;;27.40;99.90;;;;;;5068640;28;19929;-74
2022/09/11 14:03:38;;;;;;;;;;;27.20;99.90;;;;;;5067974;28;19928;-74
2022/09/11 14:06:09;;;;;;;;;;;27.20;99.90;;;;;;5068423;28;19925;-74
2022/09/11 14:08:38;;;;;;;;;;;27.30;99.90;;;;;;5068425;28;19986;-74
2022/09/11 14:11:08;;;;;;;;;;;27.20;99.90;;;;;;5070212;28;20589;-74
2022/09/11 14:13:36;;;;;;;;;;;26.90;99.90;;;;;;5068890;28;20431;-74
2022/09/11 14:16:05;;;;;;;;;;;26.80;99.90;;;;;;5049454;28;20476;-74
2022/09/11 14:18:34;;;;;;;;;;;26.50;99.90;;;;;;5067639;28;19928;-74
2022/09/11 14:21:02;;;;;;;;;;;26.20;99.90;;;;;;5087698;28;19928;-74
2022/09/11 14:23:30;;;;;;;;;;;26.20;99.90;;;;;;5086617;28;20000;-74
2022/09/11 14:26:08;;;;;;;;;;;25.90;99.90;;;;;;5096089;28;20026;-74
2022/09/11 14:28:36;;;;;;;;;;;25.90;99.90;;;;;;5089151;28;19933;-74
2022/09/11 14:31:06;;;;;;;;;;;25.80;99.90;;;;;;5071605;28;19925;-74
2022/09/11 14:33:33;;;;;;;;;;;25.60;99.90;;;;;;5076421;28;19924;-74
2022/09/11 14:36:02;;;;;;;;;;;25.50;99.90;;;;;;5084892;28;19935;-74
2022/09/11 14:38:29;;;;;;;;;;;25.30;99.90;;;;;;5080868;28;19928;-74